sensor_id;sensor_type;location;lat;lon;timestamp;pressure;altitude;pressure_sealevel;temperature;humidity
82033;BME280;71595;52.180;4.512;2024-01-30T00:00:52;102580.75;;;8.62;84.67
82033;BME280;71595;52.180;4.512;2024-01-30T00:03:18;102581.56;;;8.62;84.82
82033;BME280;71595;52.180;4.512;2024-01-30T00:05:43;102576.88;;;8.63;84.49
82033;BME280;71595;52.180;4.512;2024-01-30T00:08:08;102577.97;;;8.67;84.56
82033;BME280;71595;52.180;4.512;2024-01-30T00:10:34;102578.78;;;8.68;84.41
82033;BME280;71595;52.180;4.512;2024-01-30T00:12:59;102590.06;;;8.71;84.49
82033;BME280;71595;52.180;4.512;2024-01-30T00:18:46;102575.75;;;8.69;84.39
82033;BME280;71595;52.180;4.512;2024-01-30T00:21:11;102579.31;;;8.75;84.09
82033;BME280;71595;52.180;4.512;2024-01-30T00:23:36;102574.31;;;8.77;84.04
82033;BME280;71595;52.180;4.512;2024-01-30T00:26:02;102572.13;;;8.74;84.27
82033;BME280;71595;52.180;4.512;2024-01-30T00:28:27;102577.41;;;8.70;84.50
82033;BME280;71595;52.180;4.512;2024-01-30T00:30:52;102558.97;;;8.66;84.42
82033;BME280;71595;52.180;4.512;2024-01-30T00:33:18;102566.94;;;8.67;84.34
82033;BME280;71595;52.180;4.512;2024-01-30T00:35:43;102570.81;;;8.66;84.41
82033;BME280;71595;52.180;4.512;2024-01-30T00:38:08;102562.25;;;8.68;84.87
82033;BME280;71595;52.180;4.512;2024-01-30T00:40:34;102561.69;;;8.71;84.48
82033;BME280;71595;52.180;4.512;2024-01-30T00:42:59;102570.19;;;8.79;83.99
82033;BME280;71595;52.180;4.512;2024-01-30T00:45:25;102579.53;;;8.78;83.85
82033;BME280;71595;52.180;4.512;2024-01-30T00:47:50;102584.47;;;8.81;83.82
82033;BME280;71595;52.180;4.512;2024-01-30T00:50:15;102567.38;;;8.85;83.76
82033;BME280;71595;52.180;4.512;2024-01-30T00:52:40;102556.94;;;8.81;83.84
82033;BME280;71595;52.180;4.512;2024-01-30T00:55:07;102563.00;;;8.78;84.15
82033;BME280;71595;52.180;4.512;2024-01-30T00:57:44;102569.56;;;8.88;83.82
82033;BME280;71595;52.180;4.512;2024-01-30T01:00:10;102578.34;;;8.95;83.16
82033;BME280;71595;52.180;4.512;2024-01-30T01:02:37;102586.34;;;8.96;83.27
82033;BME280;71595;52.180;4.512;2024-01-30T01:05:04;102577.81;;;8.93;83.47
82033;BME280;71595;52.180;4.512;2024-01-30T01:07:30;102578.06;;;8.96;83.35
82033;BME280;71595;52.180;4.512;2024-01-30T01:09:55;102573.06;;;8.98;82.97
82033;BME280;71595;52.180;4.512;2024-01-30T01:12:21;102568.72;;;8.92;83.48
82033;BME280;71595;52.180;4.512;2024-01-30T01:14:46;102554.69;;;8.89;83.40
82033;BME280;71595;52.180;4.512;2024-01-30T01:17:11;102567.66;;;8.88;83.45
82033;BME280;71595;52.180;4.512;2024-01-30T01:19:37;102561.84;;;8.90;83.18
82033;BME280;71595;52.180;4.512;2024-01-30T01:22:02;102555.22;;;8.91;83.39
82033;BME280;71595;52.180;4.512;2024-01-30T01:24:28;102548.91;;;8.90;83.32
82033;BME280;71595;52.180;4.512;2024-01-30T01:26:53;102538.22;;;8.84;83.22
82033;BME280;71595;52.180;4.512;2024-01-30T01:29:19;102556.06;;;8.86;83.49
82033;BME280;71595;52.180;4.512;2024-01-30T01:31:45;102532.13;;;8.87;83.37
82033;BME280;71595;52.180;4.512;2024-01-30T01:34:12;102524.44;;;8.84;83.53
82033;BME280;71595;52.180;4.512;2024-01-30T01:36:37;102532.69;;;8.84;83.16
82033;BME280;71595;52.180;4.512;2024-01-30T01:39:03;102519.44;;;8.86;83.48
82033;BME280;71595;52.180;4.512;2024-01-30T01:41:32;102518.88;;;8.89;83.11
82033;BME280;71595;52.180;4.512;2024-01-30T01:43:57;102523.84;;;8.87;83.24
82033;BME280;71595;52.180;4.512;2024-01-30T01:46:23;102534.91;;;8.81;83.51
82033;BME280;71595;52.180;4.512;2024-01-30T01:48:49;102533.78;;;8.82;83.72
82033;BME280;71595;52.180;4.512;2024-01-30T01:51:14;102539.53;;;8.91;83.14
82033;BME280;71595;52.180;4.512;2024-01-30T01:53:41;102533.75;;;8.88;82.80
82033;BME280;71595;52.180;4.512;2024-01-30T01:56:06;102542.59;;;8.85;83.40
82033;BME280;71595;52.180;4.512;2024-01-30T01:58:32;102537.13;;;8.79;83.52
82033;BME280;71595;52.180;4.512;2024-01-30T02:00:58;102525.88;;;8.76;83.54
82033;BME280;71595;52.180;4.512;2024-01-30T02:03:24;102528.63;;;8.71;84.00
82033;BME280;71595;52.180;4.512;2024-01-30T02:05:50;102528.91;;;8.74;83.55
82033;BME280;71595;52.180;4.512;2024-01-30T02:08:16;102549.28;;;8.73;83.71
82033;BME280;71595;52.180;4.512;2024-01-30T02:10:42;102546.50;;;8.78;83.71
82033;BME280;71595;52.180;4.512;2024-01-30T02:13:07;102539.59;;;8.81;83.38
82033;BME280;71595;52.180;4.512;2024-01-30T02:15:32;102521.91;;;8.87;83.08
82033;BME280;71595;52.180;4.512;2024-01-30T02:17:57;102524.97;;;8.86;83.18
82033;BME280;71595;52.180;4.512;2024-01-30T02:20:29;102520.34;;;8.76;83.39
82033;BME280;71595;52.180;4.512;2024-01-30T02:22:58;102528.06;;;8.74;83.38
82033;BME280;71595;52.180;4.512;2024-01-30T02:25:31;102528.34;;;8.77;83.41
82033;BME280;71595;52.180;4.512;2024-01-30T02:27:56;102526.09;;;8.79;83.63
82033;BME280;71595;52.180;4.512;2024-01-30T02:30:22;102526.09;;;8.79;83.55
82033;BME280;71595;52.180;4.512;2024-01-30T02:32:47;102518.41;;;8.76;83.60
82033;BME280;71595;52.180;4.512;2024-01-30T02:35:12;102526.09;;;8.79;83.23
82033;BME280;71595;52.180;4.512;2024-01-30T02:37:38;102525.00;;;8.80;83.61
82033;BME280;71595;52.180;4.512;2024-01-30T02:40:03;102523.63;;;8.78;83.29
82033;BME280;71595;52.180;4.512;2024-01-30T02:42:29;102520.09;;;8.72;83.55
82033;BME280;71595;52.180;4.512;2024-01-30T02:44:54;102519.50;;;8.75;83.45
82033;BME280;71595;52.180;4.512;2024-01-30T02:47:20;102505.75;;;8.75;83.41
82033;BME280;71595;52.180;4.512;2024-01-30T02:49:45;102496.72;;;8.70;83.97
82033;BME280;71595;52.180;4.512;2024-01-30T02:52:10;102490.91;;;8.71;83.65
82033;BME280;71595;52.180;4.512;2024-01-30T02:54:36;102487.34;;;8.66;83.51
82033;BME280;71595;52.180;4.512;2024-01-30T03:00:10;102487.94;;;8.62;84.04
82033;BME280;71595;52.180;4.512;2024-01-30T03:02:36;102483.53;;;8.61;84.00
82033;BME280;71595;52.180;4.512;2024-01-30T03:05:02;102487.72;;;8.54;83.75
82033;BME280;71595;52.180;4.512;2024-01-30T03:07:29;102484.66;;;8.55;84.32
82033;BME280;71595;52.180;4.512;2024-01-30T03:09:54;102490.47;;;8.54;84.17
82033;BME280;71595;52.180;4.512;2024-01-30T03:12:21;102482.47;;;8.52;83.91
82033;BME280;71595;52.180;4.512;2024-01-30T03:14:46;102478.63;;;8.53;84.06
82033;BME280;71595;52.180;4.512;2024-01-30T03:17:11;102485.22;;;8.52;84.12
82033;BME280;71595;52.180;4.512;2024-01-30T03:19:37;102491.81;;;8.56;84.10
82033;BME280;71595;52.180;4.512;2024-01-30T03:22:02;102499.53;;;8.59;83.86
82033;BME280;71595;52.180;4.512;2024-01-30T03:24:27;102491.53;;;8.58;83.87
82033;BME280;71595;52.180;4.512;2024-01-30T03:26:53;102490.41;;;8.64;83.85
82033;BME280;71595;52.180;4.512;2024-01-30T03:29:18;102496.47;;;8.61;83.75
82033;BME280;71595;52.180;4.512;2024-01-30T03:31:43;102501.41;;;8.64;83.77
82033;BME280;71595;52.180;4.512;2024-01-30T03:34:09;102476.09;;;8.62;83.81
82033;BME280;71595;52.180;4.512;2024-01-30T03:36:34;102488.22;;;8.61;83.93
82033;BME280;71595;52.180;4.512;2024-01-30T03:38:59;102490.16;;;8.60;84.35
82033;BME280;71595;52.180;4.512;2024-01-30T03:41:25;102487.41;;;8.60;84.15
82033;BME280;71595;52.180;4.512;2024-01-30T03:43:50;102482.19;;;8.59;84.48
82033;BME280;71595;52.180;4.512;2024-01-30T03:46:16;102482.44;;;8.62;84.36
82033;BME280;71595;52.180;4.512;2024-01-30T03:48:41;102481.63;;;8.62;84.00
82033;BME280;71595;52.180;4.512;2024-01-30T03:51:07;102473.06;;;8.58;84.35
82033;BME280;71595;52.180;4.512;2024-01-30T03:53:32;102467.03;;;8.56;84.33
82033;BME280;71595;52.180;4.512;2024-01-30T03:55:58;102462.34;;;8.57;84.40
82033;BME280;71595;52.180;4.512;2024-01-30T03:58:23;102466.75;;;8.58;84.67
82033;BME280;71595;52.180;4.512;2024-01-30T04:00:48;102471.16;;;8.59;84.55
82033;BME280;71595;52.180;4.512;2024-01-30T04:03:14;102475.53;;;8.60;84.87
82033;BME280;71595;52.180;4.512;2024-01-30T04:05:40;102481.06;;;8.60;84.29
82033;BME280;71595;52.180;4.512;2024-01-30T04:08:07;102472.22;;;8.63;84.65
82033;BME280;71595;52.180;4.512;2024-01-30T04:10:32;102475.25;;;8.61;84.51
82033;BME280;71595;52.180;4.512;2024-01-30T04:12:57;102474.69;;;8.64;84.71
82033;BME280;71595;52.180;4.512;2024-01-30T04:15:23;102479.34;;;8.69;84.19
82033;BME280;71595;52.180;4.512;2024-01-30T04:17:48;102479.31;;;8.74;84.33
82033;BME280;71595;52.180;4.512;2024-01-30T04:20:17;102463.38;;;8.71;84.00
82033;BME280;71595;52.180;4.512;2024-01-30T04:22:46;102471.59;;;8.76;84.19
82033;BME280;71595;52.180;4.512;2024-01-30T04:25:13;102466.66;;;8.73;84.52
82033;BME280;71595;52.180;4.512;2024-01-30T04:27:38;102451.28;;;8.67;84.22
82033;BME280;71595;52.180;4.512;2024-01-30T04:30:04;102458.97;;;8.70;84.51
82033;BME280;71595;52.180;4.512;2024-01-30T04:32:29;102463.94;;;8.68;84.69
82033;BME280;71595;52.180;4.512;2024-01-30T04:34:54;102460.63;;;8.66;84.75
82033;BME280;71595;52.180;4.512;2024-01-30T04:37:20;102447.41;;;8.68;84.80
82033;BME280;71595;52.180;4.512;2024-01-30T04:39:45;102456.78;;;8.67;84.69
82033;BME280;71595;52.180;4.512;2024-01-30T04:42:10;102444.09;;;8.66;84.81
82033;BME280;71595;52.180;4.512;2024-01-30T04:44:36;102446.56;;;8.68;84.92
82033;BME280;71595;52.180;4.512;2024-01-30T04:47:01;102449.03;;;8.69;84.78
82033;BME280;71595;52.180;4.512;2024-01-30T04:49:27;102447.66;;;8.72;84.44
82033;BME280;71595;52.180;4.512;2024-01-30T04:51:52;102444.03;;;8.76;84.85
82033;BME280;71595;52.180;4.512;2024-01-30T04:54:18;102431.94;;;8.72;84.75
82033;BME280;71595;52.180;4.512;2024-01-30T04:56:43;102440.75;;;8.74;84.70
82033;BME280;71595;52.180;4.512;2024-01-30T04:59:08;102442.38;;;8.75;84.99
82033;BME280;71595;52.180;4.512;2024-01-30T05:01:35;102445.41;;;8.79;85.04
82033;BME280;71595;52.180;4.512;2024-01-30T05:04:00;102439.34;;;8.77;84.92
82033;BME280;71595;52.180;4.512;2024-01-30T05:06:29;102456.91;;;8.86;84.70
82033;BME280;71595;52.180;4.512;2024-01-30T05:08:55;102454.97;;;8.87;84.75
82033;BME280;71595;52.180;4.512;2024-01-30T05:11:20;102455.44;;;8.94;84.36
82033;BME280;71595;52.180;4.512;2024-01-30T05:13:45;102450.16;;;8.97;84.37
82033;BME280;71595;52.180;4.512;2024-01-30T05:16:11;102451.81;;;8.98;84.29
82033;BME280;71595;52.180;4.512;2024-01-30T05:18:36;102459.00;;;8.99;84.27
82033;BME280;71595;52.180;4.512;2024-01-30T05:21:05;102453.94;;;9.07;83.86
82033;BME280;71595;52.180;4.512;2024-01-30T05:23:30;102448.19;;;9.03;84.12
82033;BME280;71595;52.180;4.512;2024-01-30T05:25:56;102456.41;;;9.08;84.01
82033;BME280;71595;52.180;4.512;2024-01-30T05:28:21;102445.38;;;9.08;84.26
82033;BME280;71595;52.180;4.512;2024-01-30T05:30:47;102439.94;;;9.03;84.11
82033;BME280;71595;52.180;4.512;2024-01-30T05:33:38;102455.59;;;9.08;84.02
82033;BME280;71595;52.180;4.512;2024-01-30T05:36:04;102448.94;;;9.14;84.43
82033;BME280;71595;52.180;4.512;2024-01-30T05:38:30;102453.06;;;9.16;83.79
82033;BME280;71595;52.180;4.512;2024-01-30T05:40:57;102457.69;;;9.21;83.75
82033;BME280;71595;52.180;4.512;2024-01-30T05:43:25;102444.13;;;9.25;83.60
82033;BME280;71595;52.180;4.512;2024-01-30T05:45:51;102443.03;;;9.26;83.39
82033;BME280;71595;52.180;4.512;2024-01-30T05:48:16;102444.19;;;9.20;83.65
82033;BME280;71595;52.180;4.512;2024-01-30T05:50:42;102443.13;;;9.15;83.83
82033;BME280;71595;52.180;4.512;2024-01-30T05:53:07;102442.03;;;9.16;83.70
82033;BME280;71595;52.180;4.512;2024-01-30T05:55:32;102462.41;;;9.15;83.67
82033;BME280;71595;52.180;4.512;2024-01-30T05:57:58;102450.59;;;9.15;83.84
82033;BME280;71595;52.180;4.512;2024-01-30T06:00:23;102449.75;;;9.14;83.95
82033;BME280;71595;52.180;4.512;2024-01-30T06:02:48;102461.03;;;9.18;83.70
82033;BME280;71595;52.180;4.512;2024-01-30T06:05:14;102458.56;;;9.16;83.65
82033;BME280;71595;52.180;4.512;2024-01-30T06:07:39;102464.66;;;9.13;83.99
82033;BME280;71595;52.180;4.512;2024-01-30T06:10:05;102460.31;;;9.07;84.01
82033;BME280;71595;52.180;4.512;2024-01-30T06:12:30;102457.53;;;9.07;84.13
82033;BME280;71595;52.180;4.512;2024-01-30T06:14:56;102460.81;;;9.09;84.22
82033;BME280;71595;52.180;4.512;2024-01-30T06:17:22;102456.69;;;9.12;83.97
82033;BME280;71595;52.180;4.512;2024-01-30T06:19:47;102465.22;;;9.10;84.19
82033;BME280;71595;52.180;4.512;2024-01-30T06:22:13;102459.97;;;9.14;84.16
82033;BME280;71595;52.180;4.512;2024-01-30T06:24:38;102463.00;;;9.12;84.01
82033;BME280;71595;52.180;4.512;2024-01-30T06:27:03;102464.66;;;9.13;84.20
82033;BME280;71595;52.180;4.512;2024-01-30T06:29:29;102462.47;;;9.10;83.93
82033;BME280;71595;52.180;4.512;2024-01-30T06:31:54;102465.75;;;9.12;83.73
82033;BME280;71595;52.180;4.512;2024-01-30T06:34:20;102463.00;;;9.12;83.91
82033;BME280;71595;52.180;4.512;2024-01-30T06:36:45;102461.59;;;9.15;83.90
82033;BME280;71595;52.180;4.512;2024-01-30T06:39:10;102454.16;;;9.15;83.82
82033;BME280;71595;52.180;4.512;2024-01-30T06:41:36;102457.50;;;9.12;84.03
82033;BME280;71595;52.180;4.512;2024-01-30T06:44:04;102460.75;;;9.20;83.88
82033;BME280;71595;52.180;4.512;2024-01-30T06:46:31;102462.94;;;9.17;83.79
82033;BME280;71595;52.180;4.512;2024-01-30T06:48:57;102462.91;;;9.23;83.89
82033;BME280;71595;52.180;4.512;2024-01-30T06:51:23;102464.78;;;9.27;83.75
82033;BME280;71595;52.180;4.512;2024-01-30T06:53:48;102477.16;;;9.30;83.58
82033;BME280;71595;52.180;4.512;2024-01-30T06:56:13;102474.97;;;9.27;83.96
82033;BME280;71595;52.180;4.512;2024-01-30T06:58:39;102469.72;;;9.30;83.92
82033;BME280;71595;52.180;4.512;2024-01-30T07:01:04;102471.63;;;9.35;83.76
82033;BME280;71595;52.180;4.512;2024-01-30T07:03:29;102468.00;;;9.34;83.73
82033;BME280;71595;52.180;4.512;2024-01-30T07:05:55;102468.78;;;9.40;83.78
82033;BME280;71595;52.180;4.512;2024-01-30T07:08:20;102469.91;;;9.39;83.66
82033;BME280;71595;52.180;4.512;2024-01-30T07:10:46;102471.31;;;9.37;84.01
82033;BME280;71595;52.180;4.512;2024-01-30T07:13:11;102474.31;;;9.40;84.09
82033;BME280;71595;52.180;4.512;2024-01-30T07:15:37;102480.06;;;9.44;83.91
82033;BME280;71595;52.180;4.512;2024-01-30T07:18:03;102492.44;;;9.46;83.73
82033;BME280;71595;52.180;4.512;2024-01-30T07:23:51;102496.25;;;9.50;84.03
82033;BME280;71595;52.180;4.512;2024-01-30T07:26:16;102491.81;;;9.54;83.81
82033;BME280;71595;52.180;4.512;2024-01-30T07:28:42;102494.25;;;9.56;83.82
82033;BME280;71595;52.180;4.512;2024-01-30T07:31:08;102500.84;;;9.60;84.02
82033;BME280;71595;52.180;4.512;2024-01-30T07:33:33;102507.09;;;9.71;83.61
82033;BME280;71595;52.180;4.512;2024-01-30T07:35:58;102504.84;;;9.73;83.60
82033;BME280;71595;52.180;4.512;2024-01-30T07:38:23;102504.31;;;9.71;83.49
82033;BME280;71595;52.180;4.512;2024-01-30T07:40:49;102500.44;;;9.72;83.89
82033;BME280;71595;52.180;4.512;2024-01-30T07:43:14;102507.78;;;9.82;83.60
82033;BME280;71595;52.180;4.512;2024-01-30T07:45:40;102515.19;;;9.86;83.51
82033;BME280;71595;52.180;4.512;2024-01-30T07:48:06;102504.06;;;9.92;83.29
82033;BME280;71595;52.180;4.512;2024-01-30T07:50:31;102505.19;;;9.90;83.65
82033;BME280;71595;52.180;4.512;2024-01-30T07:53:00;102511.19;;;9.98;83.41
82033;BME280;71595;52.180;4.512;2024-01-30T07:55:25;102521.63;;;10.01;83.27
82033;BME280;71595;52.180;4.512;2024-01-30T07:57:54;102518.78;;;10.06;83.28
82033;BME280;71595;52.180;4.512;2024-01-30T08:00:21;102501.63;;;10.09;82.75
82033;BME280;71595;52.180;4.512;2024-01-30T08:02:46;102508.81;;;10.10;83.16
82033;BME280;71595;52.180;4.512;2024-01-30T08:05:11;102524.78;;;10.13;82.74
82033;BME280;71595;52.180;4.512;2024-01-30T08:07:37;102531.94;;;10.14;82.86
82033;BME280;71595;52.180;4.512;2024-01-30T08:10:03;102528.38;;;10.14;82.73
82033;BME280;71595;52.180;4.512;2024-01-30T08:12:28;102542.97;;;10.14;82.97
82033;BME280;71595;52.180;4.512;2024-01-30T08:14:54;102539.09;;;10.15;82.99
82033;BME280;71595;52.180;4.512;2024-01-30T08:17:19;102529.34;;;10.23;82.51
82033;BME280;71595;52.180;4.512;2024-01-30T08:19:45;102539.63;;;10.17;82.45
82033;BME280;71595;52.180;4.512;2024-01-30T08:22:11;102545.69;;;10.19;82.70
82033;BME280;71595;52.180;4.512;2024-01-30T08:24:36;102545.69;;;10.19;82.40
82033;BME280;71595;52.180;4.512;2024-01-30T08:27:02;102544.34;;;10.17;82.71
82033;BME280;71595;52.180;4.512;2024-01-30T08:29:28;102537.34;;;10.24;82.12
82033;BME280;71595;52.180;4.512;2024-01-30T08:31:53;102544.50;;;10.25;82.40
82033;BME280;71595;52.180;4.512;2024-01-30T08:34:20;102532.63;;;10.25;81.85
82033;BME280;71595;52.180;4.512;2024-01-30T08:36:46;102540.03;;;10.30;81.42
82033;BME280;71595;52.180;4.512;2024-01-30T08:39:11;102547.28;;;10.25;81.85
82033;BME280;71595;52.180;4.512;2024-01-30T08:41:36;102547.78;;;10.28;81.48
82033;BME280;71595;52.180;4.512;2024-01-30T08:44:02;102551.75;;;10.21;82.21
82033;BME280;71595;52.180;4.512;2024-01-30T08:46:28;102552.84;;;10.20;82.46
82033;BME280;71595;52.180;4.512;2024-01-30T08:48:53;102555.69;;;10.15;82.89
82033;BME280;71595;52.180;4.512;2024-01-30T08:51:19;102552.84;;;10.20;82.39
82033;BME280;71595;52.180;4.512;2024-01-30T08:53:44;102558.16;;;10.17;82.46
82033;BME280;71595;52.180;4.512;2024-01-30T08:56:09;102558.72;;;10.14;82.50
82033;BME280;71595;52.180;4.512;2024-01-30T08:58:35;102550.09;;;10.20;82.16
82033;BME280;71595;52.180;4.512;2024-01-30T09:01:00;102554.50;;;10.21;82.02
82033;BME280;71595;52.180;4.512;2024-01-30T09:03:25;102555.09;;;10.18;82.45
82033;BME280;71595;52.180;4.512;2024-01-30T09:05:50;102561.13;;;10.20;82.15
82033;BME280;71595;52.180;4.512;2024-01-30T09:08:16;102553.63;;;10.26;81.55
82033;BME280;71595;52.180;4.512;2024-01-30T09:10:41;102556.66;;;10.24;81.59
82033;BME280;71595;52.180;4.512;2024-01-30T09:13:07;102559.13;;;10.26;81.31
82033;BME280;71595;52.180;4.512;2024-01-30T09:15:32;102564.88;;;10.30;81.14
82033;BME280;71595;52.180;4.512;2024-01-30T09:17:58;102566.59;;;10.25;81.15
82033;BME280;71595;52.180;4.512;2024-01-30T09:20:23;102565.53;;;10.21;81.10
82033;BME280;71595;52.180;4.512;2024-01-30T09:22:49;102583.50;;;10.19;80.86
82033;BME280;71595;52.180;4.512;2024-01-30T09:25:14;102595.41;;;10.19;81.16
82033;BME280;71595;52.180;4.512;2024-01-30T09:27:40;102597.09;;;10.15;81.14
82033;BME280;71595;52.180;4.512;2024-01-30T09:30:05;102593.50;;;10.15;81.07
82033;BME280;71595;52.180;4.512;2024-01-30T09:32:31;102613.38;;;10.17;80.29
82033;BME280;71595;52.180;4.512;2024-01-30T09:34:56;102610.38;;;10.13;80.07
82033;BME280;71595;52.180;4.512;2024-01-30T09:37:21;102599.16;;;10.04;80.14
82033;BME280;71595;52.180;4.512;2024-01-30T09:39:46;102614.91;;;10.04;79.94
82033;BME280;71595;52.180;4.512;2024-01-30T09:42:34;102609.47;;;9.94;79.65
82033;BME280;71595;52.180;4.512;2024-01-30T09:45:03;102647.88;;;9.90;79.23
82033;BME280;71595;52.180;4.512;2024-01-30T09:47:49;102644.59;;;9.88;79.16
82033;BME280;71595;52.180;4.512;2024-01-30T09:50:15;102626.38;;;9.87;78.76
82033;BME280;71595;52.180;4.512;2024-01-30T09:52:45;102629.19;;;9.82;78.67
82033;BME280;71595;52.180;4.512;2024-01-30T09:55:11;102645.75;;;9.82;78.12
82033;BME280;71595;52.180;4.512;2024-01-30T09:57:36;102642.22;;;9.76;78.67
82033;BME280;71595;52.180;4.512;2024-01-30T10:00:03;102621.81;;;9.72;79.31
82033;BME280;71595;52.180;4.512;2024-01-30T10:02:31;102625.72;;;9.71;78.76
82033;BME280;71595;52.180;4.512;2024-01-30T10:04:56;102627.97;;;9.64;78.86
82033;BME280;71595;52.180;4.512;2024-01-30T10:07:22;102625.50;;;9.62;79.42
82033;BME280;71595;52.180;4.512;2024-01-30T10:09:48;102620.56;;;9.59;79.81
82033;BME280;71595;52.180;4.512;2024-01-30T10:12:14;102627.59;;;9.46;80.75
82033;BME280;71595;52.180;4.512;2024-01-30T10:14:40;102626.47;;;9.47;81.10
82033;BME280;71595;52.180;4.512;2024-01-30T10:17:06;102618.72;;;9.49;80.91
82033;BME280;71595;52.180;4.512;2024-01-30T10:19:32;102632.75;;;9.53;80.64
82033;BME280;71595;52.180;4.512;2024-01-30T10:21:57;102641.09;;;9.48;80.52
82033;BME280;71595;52.180;4.512;2024-01-30T10:24:25;102625.94;;;9.45;80.72
82033;BME280;71595;52.180;4.512;2024-01-30T10:26:51;102633.72;;;9.38;80.66
82033;BME280;71595;52.180;4.512;2024-01-30T10:29:17;102631.53;;;9.35;80.54
82033;BME280;71595;52.180;4.512;2024-01-30T10:31:42;102633.22;;;9.31;80.59
82033;BME280;71595;52.180;4.512;2024-01-30T10:34:07;102617.78;;;9.30;80.61
82033;BME280;71595;52.180;4.512;2024-01-30T10:36:33;102657.50;;;9.24;81.02
82033;BME280;71595;52.180;4.512;2024-01-30T10:39:03;102649.25;;;9.24;81.35
82033;BME280;71595;52.180;4.512;2024-01-30T10:41:34;102643.22;;;9.22;81.64
82033;BME280;71595;52.180;4.512;2024-01-30T10:44:10;102648.72;;;9.22;81.88
82033;BME280;71595;52.180;4.512;2024-01-30T10:46:38;102644.00;;;9.22;82.16
82033;BME280;71595;52.180;4.512;2024-01-30T10:49:04;102659.75;;;9.22;82.59
82033;BME280;71595;52.180;4.512;2024-01-30T10:51:31;102655.38;;;9.15;82.73
82033;BME280;71595;52.180;4.512;2024-01-30T10:53:57;102652.91;;;9.14;83.24
82033;BME280;71595;52.180;4.512;2024-01-30T10:56:23;102657.88;;;9.12;83.38
82033;BME280;71595;52.180;4.512;2024-01-30T10:58:50;102649.63;;;9.12;83.60
82033;BME280;71595;52.180;4.512;2024-01-30T11:01:16;102654.84;;;9.08;83.78
82033;BME280;71595;52.180;4.512;2024-01-30T11:03:42;102667.28;;;9.06;83.66
82033;BME280;71595;52.180;4.512;2024-01-30T11:06:11;102657.41;;;8.99;83.24
82033;BME280;71595;52.180;4.512;2024-01-30T11:08:39;102669.00;;;8.96;83.17
82033;BME280;71595;52.180;4.512;2024-01-30T11:11:09;102656.00;;;9.02;82.03
82033;BME280;71595;52.180;4.512;2024-01-30T11:13:34;102675.31;;;8.97;82.28
82033;BME280;71595;52.180;4.512;2024-01-30T11:16:03;102663.78;;;8.95;81.90
82033;BME280;71595;52.180;4.512;2024-01-30T11:18:30;102666.53;;;8.95;81.37
82033;BME280;71595;52.180;4.512;2024-01-30T11:20:56;102673.66;;;8.96;81.21
82033;BME280;71595;52.180;4.512;2024-01-30T11:23:23;102657.16;;;8.91;80.41
82033;BME280;71595;52.180;4.512;2024-01-30T11:25:48;102653.34;;;8.87;80.87
82033;BME280;71595;52.180;4.512;2024-01-30T11:28:15;102669.59;;;8.88;80.84
82033;BME280;71595;52.180;4.512;2024-01-30T11:30:41;102663.81;;;8.90;80.61
82033;BME280;71595;52.180;4.512;2024-01-30T11:35:45;102664.09;;;8.88;80.47
82033;BME280;71595;52.180;4.512;2024-01-30T11:38:13;102659.34;;;8.94;80.50
82033;BME280;71595;52.180;4.512;2024-01-30T11:40:40;102659.66;;;8.92;80.51
82033;BME280;71595;52.180;4.512;2024-01-30T11:43:07;102656.88;;;8.92;80.58
82033;BME280;71595;52.180;4.512;2024-01-30T11:45:34;102671.50;;;8.88;81.47
82033;BME280;71595;52.180;4.512;2024-01-30T11:48:00;102669.88;;;8.87;81.56
82033;BME280;71595;52.180;4.512;2024-01-30T11:50:29;102670.94;;;8.91;81.60
82033;BME280;71595;52.180;4.512;2024-01-30T11:52:54;102665.13;;;8.97;81.71
82033;BME280;71595;52.180;4.512;2024-01-30T11:55:20;102664.88;;;8.94;82.14
82033;BME280;71595;52.180;4.512;2024-01-30T11:57:45;102670.94;;;8.91;82.50
82033;BME280;71595;52.180;4.512;2024-01-30T12:00:14;102668.75;;;8.88;82.79
82033;BME280;71595;52.180;4.512;2024-01-30T12:02:40;102680.91;;;8.87;82.75
82033;BME280;71595;52.180;4.512;2024-01-30T12:05:06;102684.75;;;8.86;83.13
82033;BME280;71595;52.180;4.512;2024-01-30T12:07:32;102675.41;;;8.81;83.52
82033;BME280;71595;52.180;4.512;2024-01-30T12:09:57;102688.66;;;8.79;83.71
82033;BME280;71595;52.180;4.512;2024-01-30T12:12:25;102692.22;;;8.80;83.56
82033;BME280;71595;52.180;4.512;2024-01-30T12:14:51;102688.66;;;8.79;83.13
82033;BME280;71595;52.180;4.512;2024-01-30T12:17:24;102679.84;;;8.72;83.49
82033;BME280;71595;52.180;4.512;2024-01-30T12:19:50;102681.19;;;8.80;83.06
82033;BME280;71595;52.180;4.512;2024-01-30T12:22:15;102688.13;;;8.77;83.14
82033;BME280;71595;52.180;4.512;2024-01-30T12:24:40;102699.38;;;8.81;83.02
82033;BME280;71595;52.180;4.512;2024-01-30T12:27:06;102692.25;;;8.75;83.63
82033;BME280;71595;52.180;4.512;2024-01-30T12:29:34;102694.72;;;8.76;83.50
82033;BME280;71595;52.180;4.512;2024-01-30T12:32:00;102694.16;;;8.79;83.97
82033;BME280;71595;52.180;4.512;2024-01-30T12:34:25;102693.06;;;8.80;83.57
82033;BME280;71595;52.180;4.512;2024-01-30T12:36:50;102707.13;;;8.79;83.84
82033;BME280;71595;52.180;4.512;2024-01-30T12:39:17;102701.03;;;8.82;83.58
82033;BME280;71595;52.180;4.512;2024-01-30T12:41:42;102706.28;;;8.84;83.75
82033;BME280;71595;52.180;4.512;2024-01-30T12:44:08;102703.22;;;8.80;84.22
82033;BME280;71595;52.180;4.512;2024-01-30T12:46:34;102709.59;;;8.80;83.87
82033;BME280;71595;52.180;4.512;2024-01-30T12:49:00;102703.53;;;8.73;84.22
82033;BME280;71595;52.180;4.512;2024-01-30T12:51:25;102702.97;;;8.76;84.54
82033;BME280;71595;52.180;4.512;2024-01-30T12:53:51;102701.31;;;8.75;84.47
82033;BME280;71595;52.180;4.512;2024-01-30T12:56:16;102716.78;;;8.71;85.06
82033;BME280;71595;52.180;4.512;2024-01-30T12:58:41;102714.56;;;8.73;85.18
82033;BME280;71595;52.180;4.512;2024-01-30T13:01:08;102709.06;;;8.73;85.31
82033;BME280;71595;52.180;4.512;2024-01-30T13:03:33;102713.47;;;8.69;85.59
82033;BME280;71595;52.180;4.512;2024-01-30T13:05:59;102703.56;;;8.63;86.29